Time;durP1;ratioP1;P1;durP2;ratioP2;P2;SDS_P1;SDS_P2;PMS_P1;PMS_P2;Temp;Humidity;BMP_temperature;BMP_pressure;BME280_temperature;BME280_humidity;BME280_pressure;Samples;Min_cycle;Max_cycle;Signal;HPM_P1;HPM_P2
2023/04/20 00:01:25;;;;;;;6.78;2.65;;;9.80;92.50;;;;;;5071428;28;20443;-70
2023/04/20 00:03:51;;;;;;;6.13;2.63;;;9.70;93.10;;;;;;5071210;28;20071;-71
2023/04/20 00:06:17;;;;;;;8.15;3.20;;;9.70;93.10;;;;;;5071229;28;20116;-72
2023/04/20 00:08:43;;;;;;;7.43;3.03;;;9.70;93.40;;;;;;5070793;28;20370;-72
2023/04/20 00:11:08;;;;;;;13.80;3.17;;;9.70;93.10;;;;;;5070524;28;20021;-71
2023/04/20 00:13:34;;;;;;;6.15;2.88;;;9.80;93.20;;;;;;5070684;28;20040;-71
2023/04/20 00:16:00;;;;;;;9.82;3.13;;;9.80;93.70;;;;;;5071360;28;20089;-71
2023/04/20 00:18:25;;;;;;;10.23;3.38;;;9.70;93.60;;;;;;5070886;28;20032;-71
2023/04/20 00:20:51;;;;;;;8.85;2.58;;;9.70;93.90;;;;;;5070868;28;20110;-71
2023/04/20 00:23:17;;;;;;;6.43;3.28;;;9.70;93.70;;;;;;5070760;28;20105;-71
2023/04/20 00:25:42;;;;;;;7.70;2.83;;;9.70;94.00;;;;;;5069781;28;20016;-71
2023/04/20 00:28:08;;;;;;;7.70;3.45;;;9.70;94.00;;;;;;5071067;28;20055;-71
2023/04/20 00:30:33;;;;;;;8.60;2.88;;;9.70;94.10;;;;;;5070685;28;20446;-71
2023/04/20 00:32:59;;;;;;;6.97;2.85;;;9.70;94.10;;;;;;5070632;28;20086;-71
2023/04/20 00:35:25;;;;;;;7.03;3.13;;;9.70;94.20;;;;;;5070636;28;20399;-71
2023/04/20 00:37:50;;;;;;;11.43;3.40;;;9.60;94.40;;;;;;5071006;28;20111;-71
2023/04/20 00:40:16;;;;;;;7.95;3.72;;;9.70;94.30;;;;;;5070971;28;20021;-70
2023/04/20 00:42:42;;;;;;;8.32;3.20;;;9.80;94.20;;;;;;5070551;28;20431;-71
2023/04/20 00:45:08;;;;;;;5.97;3.08;;;9.70;94.00;;;;;;5069708;28;20416;-71
2023/04/20 00:47:34;;;;;;;8.70;3.10;;;9.60;94.30;;;;;;5070565;28;20032;-72
2023/04/20 00:50:00;;;;;;;9.48;3.17;;;9.60;94.40;;;;;;5069549;28;20081;-70
2023/04/20 00:52:26;;;;;;;6.13;2.70;;;9.60;94.50;;;;;;5069795;28;20033;-71
2023/04/20 00:54:52;;;;;;;9.25;3.15;;;9.50;94.50;;;;;;5070452;28;20115;-70
2023/04/20 00:57:22;;;;;;;7.07;3.28;;;9.60;94.30;;;;;;5070211;28;20040;-70
2023/04/20 00:59:49;;;;;;;6.25;2.88;;;9.60;94.30;;;;;;5070393;28;20493;-71
2023/04/20 01:02:15;;;;;;;7.60;2.75;;;9.70;94.30;;;;;;5070295;28;20033;-71
2023/04/20 01:04:40;;;;;;;7.03;3.42;;;9.70;94.20;;;;;;5070277;28;20111;-71
2023/04/20 01:07:06;;;;;;;10.77;3.20;;;9.70;94.40;;;;;;5070725;28;20406;-72
2023/04/20 01:09:32;;;;;;;10.65;3.33;;;9.60;94.60;;;;;;5070314;28;20103;-71
2023/04/20 01:11:57;;;;;;;7.65;3.65;;;9.50;94.70;;;;;;5069156;28;20024;-69
2023/04/20 01:14:23;;;;;;;7.32;3.30;;;9.50;94.60;;;;;;5070412;28;20111;-70
2023/04/20 01:16:50;;;;;;;8.52;3.53;;;9.50;94.70;;;;;;5070268;28;20074;-70
2023/04/20 01:19:16;;;;;;;8.13;3.17;;;9.50;94.80;;;;;;5070884;28;20031;-72
2023/04/20 01:21:42;;;;;;;6.93;3.83;;;9.40;95.00;;;;;;5070367;28;20029;-70
2023/04/20 01:24:08;;;;;;;6.47;2.95;;;9.50;94.90;;;;;;5073179;28;20473;-72
2023/04/20 01:26:33;;;;;;;8.85;3.38;;;9.40;95.10;;;;;;5074200;28;20028;-72
2023/04/20 01:28:59;;;;;;;9.55;3.58;;;9.50;95.10;;;;;;5073986;28;20036;-71
2023/04/20 01:31:24;;;;;;;6.35;3.28;;;9.50;94.90;;;;;;5074234;28;20021;-70
2023/04/20 01:33:50;;;;;;;8.90;2.90;;;9.50;94.90;;;;;;5073970;28;20104;-71
2023/04/20 01:36:16;;;;;;;9.07;3.03;;;9.60;95.00;;;;;;5085918;28;20032;-71
2023/04/20 01:38:42;;;;;;;10.63;2.95;;;9.60;94.80;;;;;;5094061;28;20489;-71
2023/04/20 01:41:09;;;;;;;7.07;3.17;;;9.60;94.90;;;;;;5093933;28;20373;-71
2023/04/20 01:43:35;;;;;;;4.15;2.38;;;9.70;94.80;;;;;;5092909;28;20039;-72
2023/04/20 01:46:01;;;;;;;10.80;3.35;;;9.70;94.60;;;;;;5094450;28;20032;-71
2023/04/20 01:48:27;;;;;;;8.00;3.22;;;9.80;95.00;;;;;;5093890;28;20028;-71
2023/04/20 01:50:53;;;;;;;5.70;2.83;;;9.60;94.60;;;;;;5092835;28;20032;-71
2023/04/20 01:53:19;;;;;;;5.80;2.60;;;9.60;94.80;;;;;;5093873;28;20028;-71
2023/04/20 01:55:44;;;;;;;11.77;2.92;;;9.60;94.90;;;;;;5093793;28;20386;-72
2023/04/20 01:58:10;;;;;;;7.88;3.15;;;9.50;95.10;;;;;;5092950;28;20457;-72
2023/04/20 02:00:36;;;;;;;8.02;3.08;;;9.50;94.90;;;;;;5093689;28;20055;-72
2023/04/20 02:03:02;;;;;;;5.13;2.70;;;9.50;95.00;;;;;;5093608;28;20066;-73
2023/04/20 02:05:28;;;;;;;7.45;3.28;;;9.50;95.00;;;;;;5092600;28;20044;-72
2023/04/20 02:07:53;;;;;;;10.73;3.30;;;9.40;95.40;;;;;;5092384;28;20036;-72
2023/04/20 02:10:19;;;;;;;8.80;2.65;;;9.50;95.40;;;;;;5094164;28;20035;-70
2023/04/20 02:12:45;;;;;;;7.55;2.85;;;9.40;95.40;;;;;;5093225;28;20458;-72
2023/04/20 02:15:11;;;;;;;5.28;2.72;;;9.40;95.50;;;;;;5093209;28;20035;-71
2023/04/20 02:17:36;;;;;;;14.02;4.15;;;9.40;95.50;;;;;;5093444;28;20027;-72
2023/04/20 02:20:08;;;;;;;8.52;3.15;;;9.40;95.60;;;;;;5075536;28;20089;-72
2023/04/20 02:22:34;;;;;;;10.15;4.13;;;9.40;95.50;;;;;;5093270;28;20382;-72
2023/04/20 02:25:04;;;;;;;6.50;3.20;;;9.30;95.70;;;;;;5093844;28;20033;-73
2023/04/20 02:27:30;;;;;;;13.30;3.53;;;9.30;95.90;;;;;;5091876;28;20066;-71
2023/04/20 02:29:56;;;;;;;8.10;3.35;;;9.20;96.00;;;;;;5093166;28;20077;-71
2023/04/20 02:32:22;;;;;;;10.38;3.65;;;9.30;96.00;;;;;;5092841;28;20032;-70
2023/04/20 02:34:47;;;;;;;13.48;4.35;;;9.20;96.00;;;;;;5092248;28;20111;-71
2023/04/20 02:37:13;;;;;;;11.35;4.00;;;9.40;96.10;;;;;;5092451;28;20038;-72
2023/04/20 02:39:39;;;;;;;11.00;3.97;;;9.20;96.30;;;;;;5093033;28;20024;-70
2023/04/20 02:42:05;;;;;;;9.07;3.97;;;9.20;96.30;;;;;;5092954;28;20032;-71
2023/04/20 02:44:30;;;;;;;10.48;3.58;;;9.20;96.20;;;;;;5092719;28;20032;-70
2023/04/20 02:46:56;;;;;;;8.77;3.45;;;9.20;96.20;;;;;;5092707;28;20039;-70
2023/04/20 02:49:22;;;;;;;7.55;3.67;;;9.30;96.20;;;;;;5093369;28;20111;-73
2023/04/20 02:51:48;;;;;;;10.98;3.63;;;9.20;96.30;;;;;;5092990;28;20512;-71
2023/04/20 02:54:13;;;;;;;10.23;3.95;;;9.10;96.50;;;;;;5092795;28;20553;-70
2023/04/20 02:56:39;;;;;;;8.32;4.07;;;9.10;96.50;;;;;;5092624;28;20024;-71
2023/04/20 02:59:05;;;;;;;11.48;4.22;;;9.00;96.70;;;;;;5092471;28;20024;-71
2023/04/20 03:01:31;;;;;;;12.07;3.67;;;9.10;96.50;;;;;;5092376;28;20335;-68
2023/04/20 03:03:57;;;;;;;12.48;3.97;;;9.20;96.20;;;;;;5091846;28;20030;-71
2023/04/20 03:06:22;;;;;;;8.48;4.13;;;9.20;96.40;;;;;;5092384;28;20032;-70
2023/04/20 03:08:48;;;;;;;9.68;3.50;;;9.20;96.40;;;;;;5092299;28;20046;-71
2023/04/20 03:11:13;;;;;;;11.48;4.07;;;9.10;96.50;;;;;;5091172;28;20081;-70
2023/04/20 03:13:40;;;;;;;12.63;4.35;;;9.10;96.70;;;;;;5092138;28;20055;-70
2023/04/20 03:16:06;;;;;;;14.32;4.30;;;9.10;96.70;;;;;;5092986;28;20024;-70
2023/04/20 03:18:31;;;;;;;13.05;4.25;;;9.10;96.70;;;;;;5092309;28;20024;-70
2023/04/20 03:20:57;;;;;;;7.28;3.55;;;9.30;96.70;;;;;;5092123;28;20438;-70
2023/04/20 03:23:23;;;;;;;9.45;4.57;;;9.10;96.50;;;;;;5091832;28;20089;-71
2023/04/20 03:25:49;;;;;;;12.02;4.15;;;9.20;96.70;;;;;;5092141;28;20020;-71
2023/04/20 03:28:15;;;;;;;10.85;4.68;;;9.10;96.90;;;;;;5091276;28;20024;-71
2023/04/20 03:30:41;;;;;;;11.13;4.25;;;9.10;96.80;;;;;;5092094;28;20105;-71
2023/04/20 03:33:07;;;;;;;14.48;4.43;;;9.10;96.90;;;;;;5091608;28;20040;-71
2023/04/20 03:35:32;;;;;;;10.45;4.05;;;9.10;96.90;;;;;;5091584;28;20030;-71
2023/04/20 03:37:58;;;;;;;14.05;3.63;;;9.20;96.90;;;;;;5090775;28;20024;-70
2023/04/20 03:40:24;;;;;;;16.17;4.50;;;9.00;97.00;;;;;;5092095;28;20054;-69
2023/04/20 03:42:50;;;;;;;6.68;3.90;;;9.00;97.10;;;;;;5090435;28;20028;-70
2023/04/20 03:45:16;;;;;;;10.05;4.63;;;8.90;97.10;;;;;;5090718;28;20378;-70
2023/04/20 03:47:41;;;;;;;12.32;4.10;;;8.90;97.20;;;;;;5090534;28;20043;-70
2023/04/20 03:50:07;;;;;;;10.77;4.35;;;9.00;97.00;;;;;;5091583;28;20469;-72
2023/04/20 03:52:33;;;;;;;12.95;4.53;;;9.00;96.90;;;;;;5091665;28;20028;-71
2023/04/20 03:54:59;;;;;;;8.85;4.55;;;9.10;96.80;;;;;;5091958;28;20020;-70
2023/04/20 03:57:25;;;;;;;9.38;4.45;;;9.00;96.90;;;;;;5091580;28;20036;-70
2023/04/20 03:59:50;;;;;;;10.00;4.82;;;9.00;96.90;;;;;;5091674;28;20081;-70
2023/04/20 04:02:17;;;;;;;8.45;3.78;;;9.10;96.90;;;;;;5091315;28;20032;-71
2023/04/20 04:04:42;;;;;;;7.80;3.72;;;9.10;97.00;;;;;;5091217;28;20465;-71
2023/04/20 04:07:08;;;;;;;14.27;4.93;;;9.00;97.10;;;;;;5091550;28;20028;-72
2023/04/20 04:09:34;;;;;;;22.27;5.50;;;9.00;97.20;;;;;;5091144;28;20453;-70
2023/04/20 04:12:00;;;;;;;17.73;5.18;;;9.10;97.20;;;;;;5089919;28;20056;-71
2023/04/20 04:14:25;;;;;;;9.57;4.05;;;9.00;97.20;;;;;;5091117;28;20032;-70
2023/04/20 04:16:51;;;;;;;10.15;5.03;;;9.00;97.20;;;;;;5091067;28;20028;-72
2023/04/20 04:19:17;;;;;;;16.55;5.45;;;9.00;97.30;;;;;;5091564;28;20492;-71
2023/04/20 04:21:42;;;;;;;14.43;4.72;;;9.00;97.40;;;;;;5091032;28;20035;-72
2023/04/20 04:24:08;;;;;;;9.68;4.45;;;9.00;97.70;;;;;;5091028;28;20028;-71
2023/04/20 04:26:34;;;;;;;12.95;4.68;;;8.90;97.80;;;;;;5089831;28;20030;-70
2023/04/20 04:28:59;;;;;;;10.70;4.63;;;8.90;97.80;;;;;;5090742;28;20123;-71
2023/04/20 04:31:25;;;;;;;10.18;4.43;;;8.90;97.80;;;;;;5091153;28;20365;-71
2023/04/20 04:33:51;;;;;;;10.13;4.35;;;9.00;97.70;;;;;;5091123;28;20036;-71
2023/04/20 04:36:16;;;;;;;15.45;4.65;;;9.10;97.60;;;;;;5089815;28;20573;-70
2023/04/20 04:38:43;;;;;;;10.93;4.97;;;9.10;97.60;;;;;;5089863;28;20100;-71
2023/04/20 04:41:11;;;;;;;17.95;5.47;;;9.10;97.70;;;;;;5090661;28;20416;-70
2023/04/20 04:43:38;;;;;;;10.38;4.80;;;9.10;97.80;;;;;;5089717;28;20081;-70
2023/04/20 04:46:11;;;;;;;12.48;5.18;;;9.10;97.70;;;;;;5091263;28;20029;-72
2023/04/20 04:48:39;;;;;;;11.07;5.05;;;9.10;97.70;;;;;;5090642;28;20030;-70
2023/04/20 04:51:05;;;;;;;10.82;4.93;;;9.10;97.80;;;;;;5090544;28;20025;-70
2023/04/20 04:53:31;;;;;;;9.68;4.30;;;9.10;97.90;;;;;;5090564;28;20024;-70
2023/04/20 04:55:56;;;;;;;11.80;4.68;;;9.20;97.90;;;;;;5090729;28;20115;-71
2023/04/20 04:58:22;;;;;;;8.23;4.20;;;9.10;98.00;;;;;;5092639;28;20055;-71
2023/04/20 05:00:48;;;;;;;11.07;4.68;;;9.10;97.90;;;;;;5093903;28;20082;-72
2023/04/20 05:03:15;;;;;;;13.52;4.75;;;9.10;98.00;;;;;;5093785;28;20028;-71
2023/04/20 05:05:40;;;;;;;10.10;4.43;;;9.10;98.00;;;;;;5094597;28;20040;-72
2023/04/20 05:08:06;;;;;;;14.73;5.82;;;9.20;98.00;;;;;;5094627;28;20047;-71
2023/04/20 05:10:31;;;;;;;8.80;5.10;;;9.10;98.10;;;;;;5094522;28;20024;-71
2023/04/20 05:12:58;;;;;;;11.93;5.25;;;9.10;98.10;;;;;;5095012;28;20036;-70
2023/04/20 05:15:24;;;;;;;13.35;4.93;;;9.10;98.10;;;;;;5093399;28;20089;-71
2023/04/20 05:17:50;;;;;;;13.75;4.68;;;9.20;98.20;;;;;;5094337;28;20154;-72
2023/04/20 05:20:16;;;;;;;11.07;4.75;;;9.10;98.20;;;;;;5094906;28;20044;-70
2023/04/20 05:22:42;;;;;;;14.82;5.50;;;9.00;98.40;;;;;;5095153;28;20024;-71
2023/04/20 05:25:08;;;;;;;14.77;5.38;;;9.10;98.30;;;;;;5093792;28;20165;-70
2023/04/20 05:27:34;;;;;;;10.02;4.55;;;9.10;98.20;;;;;;5094203;28;20089;-70
2023/04/20 05:30:00;;;;;;;12.95;5.43;;;9.20;98.30;;;;;;5094270;28;20111;-70
2023/04/20 05:32:25;;;;;;;11.30;5.07;;;9.20;98.10;;;;;;5093109;28;20462;-69
2023/04/20 05:34:51;;;;;;;15.23;4.55;;;9.30;98.10;;;;;;5094361;28;20039;-71
2023/04/20 05:37:17;;;;;;;11.43;4.93;;;9.40;98.00;;;;;;5094809;28;20445;-70
2023/04/20 05:39:42;;;;;;;11.05;4.38;;;9.40;97.90;;;;;;5094612;28;20036;-71
2023/04/20 05:42:08;;;;;;;9.35;4.90;;;9.40;98.10;;;;;;5094341;28;20024;-71
2023/04/20 05:44:35;;;;;;;12.13;4.55;;;9.40;98.10;;;;;;5093085;28;20032;-71
2023/04/20 05:47:01;;;;;;;15.27;4.35;;;9.40;97.90;;;;;;5094095;28;20036;-71
2023/04/20 05:49:27;;;;;;;10.65;4.88;;;9.40;98.10;;;;;;5094386;28;20050;-71
2023/04/20 05:51:52;;;;;;;14.32;4.63;;;9.40;98.10;;;;;;5094075;28;20028;-70
2023/04/20 05:54:18;;;;;;;10.60;4.30;;;9.40;98.10;;;;;;5094006;28;20032;-71
2023/04/20 05:56:44;;;;;;;12.73;4.97;;;9.50;98.10;;;;;;5093997;28;20469;-71
2023/04/20 05:59:10;;;;;;;12.35;5.40;;;9.40;98.10;;;;;;5093021;28;20030;-72
2023/04/20 06:01:36;;;;;;;8.43;4.60;;;9.50;98.00;;;;;;5093827;28;20100;-71
2023/04/20 06:04:01;;;;;;;11.85;5.25;;;9.40;98.10;;;;;;5094183;28;20047;-71
2023/04/20 06:06:27;;;;;;;14.10;5.20;;;9.40;98.20;;;;;;5093458;28;20429;-70
2023/04/20 06:08:53;;;;;;;8.15;4.65;;;9.50;98.00;;;;;;5093432;28;20104;-72
2023/04/20 06:11:19;;;;;;;15.73;5.28;;;9.50;98.00;;;;;;5092997;28;20031;-71
2023/04/20 06:13:45;;;;;;;14.52;5.35;;;9.50;98.00;;;;;;5092532;28;20028;-69
2023/04/20 06:16:10;;;;;;;11.93;4.90;;;9.50;97.90;;;;;;5094261;28;20023;-69
2023/04/20 06:18:36;;;;;;;12.57;5.63;;;9.50;97.80;;;;;;5093903;28;20082;-68
2023/04/20 06:21:02;;;;;;;13.93;5.63;;;9.60;97.60;;;;;;5093895;28;20361;-72
2023/04/20 06:23:28;;;;;;;12.60;5.13;;;9.70;97.50;;;;;;5093315;28;20032;-70
2023/04/20 06:25:54;;;;;;;9.77;5.20;;;9.70;97.40;;;;;;5093312;28;20039;-70
2023/04/20 06:28:20;;;;;;;9.80;5.00;;;9.70;97.40;;;;;;5092520;28;20035;-71
2023/04/20 06:30:46;;;;;;;13.15;6.10;;;9.90;97.40;;;;;;5093834;28;20043;-71
2023/04/20 06:33:16;;;;;;;13.88;5.75;;;9.80;97.30;;;;;;5093405;28;20050;-70
2023/04/20 06:35:42;;;;;;;12.40;5.47;;;9.80;97.30;;;;;;5093085;28;20025;-71
2023/04/20 06:38:08;;;;;;;9.82;5.05;;;10.00;96.80;;;;;;5093479;28;20028;-70
2023/04/20 06:40:34;;;;;;;11.80;6.00;;;9.90;97.30;;;;;;5093994;28;20051;-69
2023/04/20 06:42:59;;;;;;;15.32;5.82;;;9.90;97.00;;;;;;5092835;28;20434;-69
2023/04/20 06:45:25;;;;;;;12.35;5.43;;;10.10;96.50;;;;;;5097758;28;20366;-70
2023/04/20 06:47:51;;;;;;;11.38;5.50;;;10.00;96.60;;;;;;5077779;28;20090;-69
2023/04/20 06:50:17;;;;;;;9.95;5.47;;;9.90;97.10;;;;;;5073106;28;20025;-69
2023/04/20 06:52:42;;;;;;;10.77;5.38;;;9.80;97.20;;;;;;5072752;28;20521;-69
2023/04/20 06:55:08;;;;;;;13.48;5.57;;;9.90;97.10;;;;;;5073280;28;20446;-68
2023/04/20 06:57:36;;;;;;;9.20;5.35;;;9.80;97.10;;;;;;5072593;28;20042;-69
2023/04/20 07:00:01;;;;;;;10.57;6.20;;;9.80;97.10;;;;;;5072852;28;20094;-69
2023/04/20 07:02:27;;;;;;;14.32;6.28;;;9.80;97.30;;;;;;5071147;28;20028;-70
2023/04/20 07:04:58;;;;;;;10.57;5.75;;;9.90;97.20;;;;;;5072617;28;20086;-68
2023/04/20 07:07:24;;;;;;;12.13;5.60;;;10.10;96.50;;;;;;5073195;28;20028;-70
2023/04/20 07:09:50;;;;;;;12.02;5.70;;;10.20;96.30;;;;;;5072571;28;20504;-71
2023/04/20 07:12:16;;;;;;;11.55;5.80;;;10.30;96.00;;;;;;5072337;28;20032;-70
2023/04/20 07:14:42;;;;;;;9.77;5.32;;;10.30;95.90;;;;;;5071062;28;20044;-71
2023/04/20 07:17:07;;;;;;;12.00;5.28;;;10.30;95.70;;;;;;5072236;28;20131;-70
2023/04/20 07:19:34;;;;;;;10.43;5.28;;;10.50;95.80;;;;;;5072152;28;20016;-69
2023/04/20 07:21:59;;;;;;;9.35;5.63;;;10.40;95.50;;;;;;5072376;28;20012;-71
2023/04/20 07:24:25;;;;;;;9.98;4.75;;;10.30;95.50;;;;;;5071999;28;20113;-71
2023/04/20 07:26:51;;;;;;;11.05;5.82;;;10.20;95.60;;;;;;5071814;28;20062;-70
2023/04/20 07:29:16;;;;;;;12.25;5.88;;;10.10;95.70;;;;;;5071743;28;20032;-69
2023/04/20 07:31:42;;;;;;;7.85;4.78;;;10.00;95.90;;;;;;5071585;28;20548;-69
2023/04/20 07:34:07;;;;;;;11.68;5.53;;;10.10;95.90;;;;;;5071180;28;20133;-68
2023/04/20 07:36:33;;;;;;;16.23;5.60;;;9.90;96.40;;;;;;5071702;28;20591;-68
2023/04/20 07:38:59;;;;;;;12.13;5.28;;;10.00;96.00;;;;;;5070603;28;20020;-67
2023/04/20 07:41:25;;;;;;;12.50;5.80;;;10.00;95.90;;;;;;5070288;28;20111;-66
2023/04/20 07:43:50;;;;;;;12.18;5.78;;;10.00;95.80;;;;;;5070371;28;20039;-68
2023/04/20 07:46:21;;;;;;;13.88;5.95;;;10.10;95.60;;;;;;5071948;28;20028;-68
2023/04/20 07:48:47;;;;;;;10.32;5.97;;;10.10;95.60;;;;;;5072095;28;20028;-69
2023/04/20 07:51:13;;;;;;;11.35;6.00;;;10.20;95.80;;;;;;5071733;28;20025;-66
2023/04/20 07:53:38;;;;;;;11.90;5.68;;;10.30;95.50;;;;;;5071483;28;20028;-69
2023/04/20 07:56:05;;;;;;;11.40;6.00;;;10.20;95.30;;;;;;5071326;28;20033;-67
2023/04/20 07:58:30;;;;;;;11.48;6.28;;;10.30;95.30;;;;;;5071704;28;20350;-68
2023/04/20 08:00:56;;;;;;;15.63;5.88;;;10.40;95.20;;;;;;5071207;28;20036;-69
2023/04/20 08:03:22;;;;;;;11.00;5.75;;;10.40;94.80;;;;;;5071260;28;20024;-69
2023/04/20 08:05:47;;;;;;;8.75;5.43;;;10.40;94.80;;;;;;5071236;28;20128;-66
2023/04/20 08:08:13;;;;;;;10.43;5.40;;;10.40;94.80;;;;;;5069995;28;20060;-68
2023/04/20 08:10:38;;;;;;;9.60;5.97;;;10.50;94.60;;;;;;5071211;28;20063;-73
2023/04/20 08:13:04;;;;;;;13.90;5.97;;;10.50;94.50;;;;;;5071598;28;20381;-71
2023/04/20 08:15:30;;;;;;;14.18;5.30;;;10.50;94.40;;;;;;5071305;28;20189;-68
2023/04/20 08:17:55;;;;;;;13.70;5.40;;;10.60;94.40;;;;;;5071043;28;20039;-69
2023/04/20 08:20:21;;;;;;;12.35;5.80;;;10.60;94.40;;;;;;5071148;28;20020;-71
2023/04/20 08:22:48;;;;;;;11.35;5.75;;;10.80;94.30;;;;;;5070890;28;20039;-69
2023/04/20 08:25:13;;;;;;;10.63;5.55;;;11.20;94.30;;;;;;5071429;28;20519;-71
2023/04/20 08:27:39;;;;;;;10.48;5.47;;;11.70;93.30;;;;;;5071180;28;20037;-71
2023/04/20 08:30:05;;;;;;;8.63;4.35;;;12.40;92.50;;;;;;5070964;28;20382;-69
2023/04/20 08:32:31;;;;;;;10.25;5.10;;;12.70;92.00;;;;;;5070479;28;20132;-70
2023/04/20 08:34:57;;;;;;;9.55;4.93;;;12.80;91.30;;;;;;5071126;28;20120;-70
2023/04/20 08:37:24;;;;;;;9.93;5.20;;;12.50;91.10;;;;;;5071251;28;20451;-70
2023/04/20 08:39:49;;;;;;;8.13;4.85;;;12.30;90.80;;;;;;5070784;28;20041;-69
2023/04/20 08:42:15;;;;;;;12.30;5.05;;;12.10;90.60;;;;;;5070704;28;20055;-70
2023/04/20 08:44:41;;;;;;;9.10;4.50;;;11.90;90.80;;;;;;5070562;28;20032;-70
2023/04/20 08:47:10;;;;;;;10.05;5.30;;;11.90;90.70;;;;;;5069566;28;20492;-69
2023/04/20 08:49:38;;;;;;;6.45;4.25;;;12.00;90.80;;;;;;5070950;28;20079;-70
2023/04/20 08:52:04;;;;;;;10.02;5.05;;;11.90;90.60;;;;;;5071150;28;20016;-70
2023/04/20 08:54:29;;;;;;;9.77;4.78;;;11.80;90.70;;;;;;5070728;28;20047;-69
2023/04/20 08:56:55;;;;;;;10.68;4.32;;;11.90;90.60;;;;;;5070782;28;20198;-68
2023/04/20 08:59:21;;;;;;;6.72;4.07;;;11.80;90.50;;;;;;5069480;28;20035;-71
2023/04/20 09:01:47;;;;;;;8.32;4.78;;;11.90;90.30;;;;;;5070485;28;20099;-68
2023/04/20 09:04:15;;;;;;;9.10;4.43;;;11.90;90.50;;;;;;5071191;28;20031;-69
2023/04/20 09:06:51;;;;;;;9.93;5.18;;;12.00;90.50;;;;;;5070657;28;20029;-69
2023/04/20 09:09:18;;;;;;;9.10;5.00;;;11.80;90.50;;;;;;5070490;28;20131;-69
2023/04/20 09:11:44;;;;;;;8.02;4.93;;;11.90;90.30;;;;;;5070537;28;20356;-68
2023/04/20 09:14:12;;;;;;;8.32;5.03;;;11.90;90.30;;;;;;5070488;28;20402;-68
2023/04/20 09:16:52;;;;;;;11.10;6.70;;;11.90;90.30;;;;;;5070377;28;20047;-70
2023/04/20 09:19:26;;;;;;;12.75;5.03;;;12.00;90.30;;;;;;5070760;28;20021;-70
2023/04/20 09:21:54;;;;;;;11.18;4.40;;;12.20;90.30;;;;;;5069820;28;20296;-69
2023/04/20 09:24:21;;;;;;;6.43;4.25;;;12.20;89.50;;;;;;5070211;28;20056;-71
2023/04/20 09:26:48;;;;;;;5.80;3.80;;;12.10;87.80;;;;;;5070274;28;20029;-70
2023/04/20 09:29:19;;;;;;;7.63;4.70;;;11.90;88.00;;;;;;5069149;28;20458;-69
2023/04/20 09:31:45;;;;;;;7.07;3.90;;;11.90;88.00;;;;;;5069913;28;20466;-71
2023/04/20 09:34:11;;;;;;;6.40;4.30;;;11.90;88.00;;;;;;5070587;28;20017;-68
2023/04/20 09:36:43;;;;;;;8.57;3.65;;;11.90;88.10;;;;;;5070017;28;20029;-69
2023/04/20 09:39:13;;;;;;;9.30;4.97;;;11.90;88.40;;;;;;5070150;28;20370;-69
2023/04/20 09:41:40;;;;;;;7.38;4.03;;;11.90;87.90;;;;;;5070031;28;20039;-70
2023/04/20 09:44:06;;;;;;;6.47;4.50;;;11.90;88.00;;;;;;5070350;28;20448;-69
2023/04/20 09:46:35;;;;;;;9.85;4.60;;;11.80;87.70;;;;;;5073281;28;20032;-69
2023/04/20 09:49:03;;;;;;;10.85;4.32;;;11.90;87.40;;;;;;5074463;28;20144;-69
2023/04/20 09:51:34;;;;;;;4.53;3.58;;;11.80;86.70;;;;;;5073783;28;20024;-69
2023/04/20 09:54:01;;;;;;;7.60;4.07;;;11.80;87.00;;;;;;5073908;28;20308;-70
2023/04/20 09:56:28;;;;;;;8.85;4.38;;;12.00;87.40;;;;;;5072595;28;20056;-71
2023/04/20 09:58:55;;;;;;;6.18;4.03;;;12.10;86.40;;;;;;5073412;28;20049;-69
2023/04/20 10:01:21;;;;;;;8.20;4.20;;;12.30;86.00;;;;;;5074142;28;20033;-70
2023/04/20 10:03:47;;;;;;;5.63;4.05;;;12.50;85.50;;;;;;5073452;28;20089;-69
2023/04/20 10:06:30;;;;;;;6.60;4.00;;;12.80;84.70;;;;;;5073533;28;20531;-70
2023/04/20 10:08:57;;;;;;;6.18;4.05;;;12.80;83.50;;;;;;5072325;28;20105;-69
2023/04/20 10:11:23;;;;;;;6.85;3.83;;;12.90;83.90;;;;;;5073282;28;20379;-71
2023/04/20 10:13:49;;;;;;;6.07;3.88;;;12.90;83.50;;;;;;5073096;28;20028;-69
2023/04/20 10:16:19;;;;;;;8.18;4.55;;;12.90;82.80;;;;;;5072488;28;20093;-68
2023/04/20 10:19:03;;;;;;;5.97;4.07;;;13.10;83.00;;;;;;5073293;28;20388;-69
2023/04/20 10:21:32;;;;;;;6.88;4.57;;;13.10;82.20;;;;;;5073154;28;20028;-70
2023/04/20 10:24:01;;;;;;;6.38;3.92;;;13.00;82.00;;;;;;5072899;28;20047;-69
2023/04/20 10:26:38;;;;;;;6.45;4.22;;;12.80;81.60;;;;;;5073042;28;20067;-69
2023/04/20 10:29:05;;;;;;;7.55;4.35;;;12.70;81.70;;;;;;5073233;28;20033;-68
2023/04/20 10:31:39;;;;;;;6.75;3.80;;;12.80;81.90;;;;;;5072834;28;20615;-69
2023/04/20 10:34:06;;;;;;;6.75;4.32;;;12.80;81.80;;;;;;5073350;28;20078;-70
2023/04/20 10:36:36;;;;;;;6.43;4.20;;;12.90;81.70;;;;;;5071947;28;20343;-71
2023/04/20 10:39:15;;;;;;;9.30;4.60;;;13.00;81.70;;;;;;5072867;28;20051;-70
2023/04/20 10:42:03;;;;;;;7.97;3.95;;;13.20;80.70;;;;;;5071806;28;20409;-69
2023/04/20 10:44:34;;;;;;;7.03;4.25;;;13.20;81.00;;;;;;5071818;28;20090;-68
2023/04/20 10:46:59;;;;;;;9.07;4.90;;;13.20;81.20;;;;;;5071680;28;20506;-69
2023/04/20 10:49:30;;;;;;;8.85;4.75;;;13.50;81.10;;;;;;5073351;28;20382;-69
2023/04/20 10:51:56;;;;;;;8.05;4.22;;;13.80;80.50;;;;;;5072645;28;20040;-67
2023/04/20 10:54:22;;;;;;;5.20;4.00;;;13.80;79.70;;;;;;5072554;28;20024;-67
2023/04/20 10:56:50;;;;;;;6.72;4.55;;;14.10;79.90;;;;;;5072186;28;20055;-68
2023/04/20 10:59:21;;;;;;;8.90;4.65;;;14.30;78.80;;;;;;5072568;28;20028;-70
2023/04/20 11:01:48;;;;;;;9.02;4.45;;;14.30;78.40;;;;;;5072545;28;20091;-68
2023/04/20 11:04:14;;;;;;;6.13;4.05;;;14.70;79.40;;;;;;5073096;28;20027;-68
2023/04/20 11:06:41;;;;;;;5.70;4.10;;;14.90;78.50;;;;;;5072364;28;20024;-68
2023/04/20 11:09:22;;;;;;;6.15;3.97;;;15.20;77.60;;;;;;5072288;28;20032;-70
2023/04/20 11:11:58;;;;;;;6.57;3.85;;;15.30;76.40;;;;;;5071565;28;20028;-69
2023/04/20 11:14:23;;;;;;;6.30;3.70;;;15.20;75.80;;;;;;5072333;28;20051;-70
2023/04/20 11:16:52;;;;;;;8.35;3.80;;;15.20;75.20;;;;;;5072419;28;20056;-69
2023/04/20 11:19:26;;;;;;;10.18;4.05;;;15.00;74.40;;;;;;5074668;28;20365;-69
2023/04/20 11:21:52;;;;;;;6.63;4.07;;;14.90;74.80;;;;;;5074147;28;20052;-69
2023/04/20 11:24:22;;;;;;;9.23;4.82;;;14.80;74.70;;;;;;5073186;28;20029;-70
2023/04/20 11:26:49;;;;;;;7.45;4.32;;;14.60;75.70;;;;;;5072956;28;20367;-70
2023/04/20 11:29:33;;;;;;;7.07;4.90;;;14.70;75.50;;;;;;5071707;28;20032;-71
2023/04/20 11:32:03;;;;;;;6.30;3.83;;;14.60;75.30;;;;;;5072598;28;20462;-69
2023/04/20 11:34:29;;;;;;;8.32;4.93;;;14.60;75.90;;;;;;5073996;28;20024;-70
2023/04/20 11:36:55;;;;;;;7.00;4.30;;;14.70;76.50;;;;;;5073120;28;20098;-68
2023/04/20 11:39:25;;;;;;;5.63;4.20;;;14.70;76.40;;;;;;5074121;28;20137;-69
2023/04/20 11:41:52;;;;;;;5.05;3.75;;;14.90;76.00;;;;;;5073253;28;20462;-70
2023/04/20 11:44:20;;;;;;;6.60;3.92;;;14.80;75.30;;;;;;5073053;28;20362;-70
2023/04/20 11:46:47;;;;;;;5.85;4.35;;;14.70;74.50;;;;;;5073223;28;20423;-70
2023/04/20 11:49:16;;;;;;;6.40;3.95;;;14.80;74.60;;;;;;5073134;28;20036;-69
2023/04/20 11:51:42;;;;;;;6.75;4.20;;;14.90;74.70;;;;;;5072663;28;20032;-71
2023/04/20 11:54:08;;;;;;;7.05;4.60;;;15.00;74.00;;;;;;5072896;28;20048;-70
2023/04/20 11:56:34;;;;;;;6.82;4.35;;;15.00;73.90;;;;;;5072988;28;20056;-70
2023/04/20 11:58:59;;;;;;;7.40;4.75;;;15.10;74.30;;;;;;5072601;28;20021;-69
2023/04/20 12:01:25;;;;;;;9.77;4.35;;;15.20;73.80;;;;;;5072304;28;20088;-70
2023/04/20 12:03:51;;;;;;;4.68;3.13;;;15.40;73.60;;;;;;5071922;28;20033;-71
2023/04/20 12:06:16;;;;;;;4.22;3.55;;;15.40;71.80;;;;;;5072251;28;20354;-70
2023/04/20 12:08:42;;;;;;;5.97;3.63;;;15.30;70.70;;;;;;5071933;28;20040;-70
2023/04/20 12:11:08;;;;;;;5.82;3.47;;;15.20;71.10;;;;;;5072473;28;20047;-70
2023/04/20 12:13:34;;;;;;;4.60;3.65;;;15.20;72.40;;;;;;5072071;28;20028;-70
2023/04/20 12:15:59;;;;;;;6.55;3.65;;;15.30;71.10;;;;;;5073059;28;20342;-70
2023/04/20 12:18:25;;;;;;;4.82;3.58;;;15.30;70.70;;;;;;5072670;28;20351;-69
2023/04/20 12:20:50;;;;;;;9.27;3.78;;;15.30;70.70;;;;;;5071722;28;20029;-70
2023/04/20 12:23:16;;;;;;;7.32;3.35;;;15.40;71.40;;;;;;5071363;28;20086;-69
2023/04/20 12:25:42;;;;;;;4.95;3.65;;;15.60;71.80;;;;;;5071628;28;20028;-68
2023/04/20 12:28:08;;;;;;;10.18;3.72;;;15.80;71.20;;;;;;5073812;28;20466;-69
2023/04/20 12:30:34;;;;;;;7.95;3.95;;;15.80;70.70;;;;;;5074749;28;20032;-69
2023/04/20 12:33:02;;;;;;;9.07;4.53;;;16.00;71.10;;;;;;5075184;28;20048;-68
2023/04/20 12:35:28;;;;;;;7.88;3.95;;;15.90;71.20;;;;;;5075420;28;20035;-71
2023/04/20 12:37:53;;;;;;;6.00;3.63;;;15.80;71.00;;;;;;5078277;28;20025;-71
2023/04/20 12:40:19;;;;;;;5.55;3.75;;;15.70;69.50;;;;;;5077329;28;20096;-70
2023/04/20 12:42:45;;;;;;;5.55;3.42;;;15.40;68.60;;;;;;5077513;28;20029;-70
2023/04/20 12:45:11;;;;;;;5.13;3.28;;;15.60;69.00;;;;;;5076131;28;20036;-71